Flight Track Log - Related Links

Times and Time Zones

All times are in EDT time to prevent confusion due to time zone crossing. See the AIE802 flight status page for this flight to view local times or setup timezone preferences in your user account.


Time Position Orientation Groundspeed Altitude Reporting Facility
EDT Latitude Longitude Course Direction KTS MPH feet Rate Location/Type
Sat 08:22:18 AM 45.4333 -73.7500 348° North 130 150 900  Level Montreal Center
Sat 08:23:18 AM 45.4500 -73.8000 295° West 160 184 2,200 1,350 Climbing Montreal Center
Sat 08:24:18 AM 45.4833 -73.8333 325° Northwest 180 207 3,600 1,300 Climbing Montreal Center
Sat 08:25:18 AM 45.5333 -73.8667 335° Northwest 190 219 4,800 1,350 Climbing Montreal Center
Sat 08:26:18 AM 45.6000 -73.8667 360° North 200 230 6,300 1,300 Climbing Montreal Center
Sat 08:27:00 AM 45.8785 -73.8535 348° North  Level FlightAware Approximate
Sat 08:27:18 AM 45.6500 -73.8833 347° North 200 230 7,400  Level Montreal Center
Sat 08:28:18 AM 45.7000 -73.8833 360° North 200 230 8,700 1,200 Climbing Montreal Center
Sat 08:29:18 AM 45.7667 -73.9000 350° North 210 242 9,800 1,000 Climbing Montreal Center
Sat 08:30:18 AM 45.8167 -73.9000 360° North 210 242 10,700 900 Climbing Montreal Center
Sat 08:31:18 AM 45.8833 -73.9167 350° North 210 242 11,600 850 Climbing Montreal Center
Sat 08:32:18 AM 45.9500 -73.9167 360° North 220 253 12,400 750 Climbing Montreal Center
Sat 08:33:18 AM 46.0167 -73.9333 350° North 220 253 13,100 700 Climbing Montreal Center
Sat 08:34:18 AM 46.0667 -73.9333 360° North 230 265 13,800 700 Climbing Montreal Center
Sat 08:35:18 AM 46.1333 -73.9667 341° North 230 265 14,500 700 Climbing Montreal Center
Sat 08:36:18 AM 46.2000 -73.9833 350° North 240 276 15,200 650 Climbing Montreal Center
Sat 08:37:18 AM 46.2667 -73.9833 360° North 240 276 15,800 550 Climbing Montreal Center
Sat 08:38:18 AM 46.3333 -74.0000 350° North 250 288 16,300 600 Climbing Montreal Center
Sat 08:39:18 AM 46.4000 -74.0000 360° North 240 276 17,000 600 Climbing Montreal Center
Sat 08:40:18 AM 46.4667 -74.0167 350° North 250 288 17,500 700 Climbing Montreal Center
Sat 08:41:18 AM 46.5333 -74.0333 350° North 250 288 18,400 650 Climbing Montreal Center
Sat 08:42:18 AM 46.6167 -74.0333 360° North 250 288 18,800 550 Climbing Montreal Center
Sat 08:43:18 AM 46.6667 -74.0667 335° Northwest 240 276 19,500 550 Climbing Montreal Center
Sat 08:44:18 AM 46.7500 -74.0500 North 240 276 19,900 500 Climbing Montreal Center
Sat 08:45:18 AM 46.8000 -74.0833 335° Northwest 240 276 20,500 450 Climbing Montreal Center
Sat 08:46:18 AM 46.8667 -74.1000 350° North 230 265 20,800 350 Climbing Montreal Center
Sat 08:47:18 AM 46.9333 -74.1000 360° North 240 276 21,200 400 Climbing Montreal Center
Sat 08:48:18 AM 47.0000 -74.1167 350° North 230 265 21,600 350 Climbing Montreal Center
Sat 08:49:18 AM 47.0667 -74.1167 360° North 230 265 21,900 350 Climbing Montreal Center
Sat 08:50:18 AM 47.1333 -74.1333 350° North 240 276 22,300 350 Climbing Montreal Center
Sat 08:51:18 AM 47.2000 -74.1667 341° North 230 265 22,600 300 Climbing Montreal Center
Sat 08:52:18 AM 47.2500 -74.1833 347° North 230 265 22,900 200 Climbing Montreal Center
Sat 08:53:18 AM 47.3167 -74.2167 341° North 230 265 23,000 50 Climbing Montreal Center
Sat 08:54:18 AM 47.3833 -74.2333 350° North 240 276 23,000  Level Montreal Center
Sat 08:55:18 AM 47.4500 -74.2500 350° North 250 288 23,000  Level Montreal Center
Sat 08:56:18 AM 47.5167 -74.2833 341° North 250 288 23,000  Level Montreal Center
Sat 08:57:18 AM 47.6000 -74.3000 352° North 260 299 23,000  Level Montreal Center
Sat 08:58:18 AM 47.6667 -74.3167 350° North 260 299 23,000  Level Montreal Center
Sat 08:59:18 AM 47.7333 -74.3667 333° Northwest 260 299 23,000  Level Montreal Center
Sat 09:00:18 AM 47.8167 -74.3833 352° North 260 299 23,000  Level Montreal Center
Sat 09:01:18 AM 47.8833 -74.4167 341° North 270 311 23,000  Level Montreal Center
Sat 09:02:18 AM 47.9500 -74.4333 350° North 260 299 23,000  Level Montreal Center
Sat 09:03:18 AM 48.0167 -74.4667 342° North 260 299 23,000  Level Montreal Center
Sat 09:04:18 AM 48.1000 -74.5000 345° North 260 299 23,000  Level Montreal Center
Sat 09:05:18 AM 48.1667 -74.5333 342° North 260 299 23,000  Level Montreal Center
Sat 09:06:18 AM 48.2333 -74.5500 351° North 260 299 23,000  Level Montreal Center
Sat 09:07:18 AM 48.3000 -74.5833 342° North 260 299 23,000  Level Montreal Center
Sat 09:08:18 AM 48.3667 -74.6000 351° North 260 299 23,000  Level Montreal Center
Sat 09:09:18 AM 48.4500 -74.6500 338° Northwest 260 299 23,000  Level Montreal Center
Sat 09:10:18 AM 48.5167 -74.6500 360° North 260 299 23,000  Level Montreal Center
Sat 09:11:18 AM 48.5833 -74.7000 334° Northwest 260 299 23,000  Level Montreal Center
Sat 09:12:18 AM 48.6500 -74.7167 351° North 260 299 23,000  Level Montreal Center
Sat 09:13:18 AM 48.7167 -74.7500 342° North 260 299 23,000  Level Montreal Center
Sat 09:14:18 AM 48.7833 -74.7667 351° North 260 299 23,000  Level Montreal Center
Sat 09:15:18 AM 48.8833 -74.7833 354° North 260 299 23,000  Level Montreal Center
Sat 09:16:18 AM 48.9333 -74.8333 327° Northwest 250 288 23,000  Level Montreal Center
Sat 09:17:18 AM 49.0000 -74.8667 342° North 250 288 23,000  Level Montreal Center
Sat 09:18:18 AM 49.0833 -74.8833 353° North 250 288 23,000  Level Montreal Center
Sat 09:19:18 AM 49.1333 -74.9167 336° Northwest 250 288 23,000 550 Level Montreal Center
Sat 09:20:18 AM 49.2000 -74.9333 351° North 230 265 24,100 700 Climbing Montreal Center
Sat 09:21:18 AM 49.2500 -74.9667 336° Northwest 200 230 24,400 350 Climbing Montreal Center
Sat 09:22:18 AM 49.3167 -74.9833 351° North 200 230 24,800 300 Climbing Montreal Center
Sat 09:23:18 AM 49.3667 -75.0167 337° Northwest 200 230 25,000 100 Climbing Montreal Center
Sat 09:24:18 AM 49.4167 -75.0333 348° North 200 230 25,000  Level Montreal Center
Sat 09:25:18 AM 49.4833 -75.0667 342° North 210 242 25,000  Level Montreal Center
Sat 09:26:18 AM 49.5333 -75.0667 360° North 220 253 25,000  Level Montreal Center
Sat 09:27:18 AM 49.6000 -75.1167 334° Northwest 220 253 25,000  Level Montreal Center
Sat 09:28:18 AM 49.6500 -75.1333 348° North 230 265 25,000  Level Montreal Center
Sat 09:29:18 AM 49.7167 -75.1667 342° North 240 276 25,000  Level Montreal Center
Sat 09:30:18 AM 49.7833 -75.1833 351° North 240 276 25,000  Level Montreal Center
Sat 09:31:18 AM 49.8500 -75.2167 342° North 240 276 25,000  Level Montreal Center
Sat 09:32:18 AM 49.9167 -75.2333 351° North 250 288 25,000  Level Montreal Center
Sat 09:33:18 AM 49.9833 -75.2667 342° North 250 288 25,000  Level Montreal Center
Sat 09:34:18 AM 50.0500 -75.2833 351° North 250 288 25,000  Level Montreal Center
Sat 09:35:18 AM 50.1167 -75.3167 342° North 250 288 25,000  Level Montreal Center
Sat 09:36:18 AM 50.1833 -75.3333 351° North 250 288 25,000  Level Montreal Center
Sat 09:37:18 AM 50.2667 -75.3833 339° North 250 288 25,000  Level Montreal Center
Sat 09:38:18 AM 50.3333 -75.4167 342° North 250 288 25,000  Level Montreal Center
Sat 09:39:18 AM 50.4000 -75.4333 351° North 250 288 25,000  Level Montreal Center
Sat 09:40:18 AM 50.4667 -75.4667 342° North 260 299 25,000  Level Montreal Center
Sat 09:41:18 AM 50.5333 -75.4833 351° North 250 288 25,000  Level Montreal Center
Sat 09:42:18 AM 50.6000 -75.5167 342° North 250 288 25,000  Level Montreal Center
Sat 09:43:18 AM 50.6667 -75.5333 351° North 250 288 25,000  Level Montreal Center
Sat 09:44:18 AM 50.7333 -75.5667 342° North 250 288 25,000  Level Montreal Center
Sat 09:45:18 AM 50.8000 -75.6167 335° Northwest 250 288 25,000  Level Montreal Center
Sat 09:46:18 AM 50.8667 -75.6500 342° North 250 288 25,000  Level Montreal Center
Sat 09:48:18 AM 51.0000 -75.7000 347° North 250 288 25,000  Level Montreal Center
Sat 09:49:18 AM 51.0667 -75.7167 351° North 250 288 25,000  Level Montreal Center
Sat 09:50:18 AM 51.1333 -75.7500 343° North 240 276 25,000  Level Montreal Center
Sat 09:51:18 AM 51.2000 -75.7833 343° North 240 276 25,000  Level Montreal Center
Sat 09:52:18 AM 51.2667 -75.8000 351° North 240 276 25,000  Level Montreal Center
Sat 09:53:18 AM 51.3167 -75.8333 337° Northwest 240 276 25,000  Level Montreal Center
Sat 09:54:18 AM 51.3833 -75.8500 351° North 240 276 25,000  Level Montreal Center
Sat 09:55:18 AM 51.4500 -75.9167 328° Northwest 240 276 25,000  Level Montreal Center
Sat 09:56:18 AM 51.5167 -75.9333 351° North 240 276 25,000  Level Montreal Center
Sat 09:57:18 AM 51.5833 -75.9667 343° North 240 276 25,000  Level Montreal Center
Sat 09:58:18 AM 51.6500 -76.0000 343° North 240 276 25,000  Level Montreal Center
Sat 09:59:18 AM 51.7167 -76.0167 351° North 240 276 25,000  Level Montreal Center
Sat 10:00:18 AM 51.7667 -76.0500 338° Northwest 240 276 25,000  Level Montreal Center
Sat 10:01:18 AM 51.8500 -76.0667 353° North 240 276 25,000  Level Montreal Center
Sat 10:02:18 AM 51.9167 -76.1000 343° North 240 276 25,000  Level Montreal Center
Sat 10:03:18 AM 51.9833 -76.1333 343° North 240 276 25,000  Level Montreal Center
Sat 10:04:18 AM 52.0500 -76.1500 351° North 240 276 25,000  Level Montreal Center
Sat 10:05:18 AM 52.1000 -76.1833 338° Northwest 230 265 25,000  Level Montreal Center
Sat 10:06:18 AM 52.1667 -76.2167 343° North 240 276 25,000  Level Montreal Center
Sat 10:07:18 AM 52.2333 -76.2333 351° North 240 276 25,000  Level Montreal Center
Sat 10:08:18 AM 52.3000 -76.2667 343° North 230 265 25,000  Level Montreal Center
Sat 10:09:18 AM 52.3667 -76.3167 335° Northwest 240 276 25,000  Level Montreal Center
Sat 10:10:18 AM 52.4167 -76.3500 338° Northwest 230 265 25,000  Level Montreal Center
Sat 10:11:18 AM 52.4833 -76.3833 343° North 230 265 25,000  Level Montreal Center
Sat 10:12:18 AM 52.5500 -76.4000 351° North 230 265 25,000  Level Montreal Center
Sat 10:13:18 AM 52.6000 -76.4333 338° Northwest 230 265 25,000  Level Montreal Center
Sat 10:14:18 AM 52.6667 -76.4667 343° North 230 265 25,000  Level Montreal Center
Sat 10:15:18 AM 52.7333 -76.5000 343° North 230 265 25,000  Level Montreal Center
Sat 10:16:18 AM 52.8000 -76.5167 351° North 230 265 25,000  Level Montreal Center
Sat 10:17:18 AM 52.8500 -76.5500 338° Northwest 230 265 25,000  Level Montreal Center
Sat 10:18:18 AM 52.9167 -76.5833 343° North 240 276 25,000  Level Montreal Center
Sat 10:19:18 AM 52.9833 -76.6000 351° North 240 276 25,000  Level Montreal Center
Sat 10:20:18 AM 53.0500 -76.6333 343° North 240 276 25,000  Level Montreal Center
Sat 10:21:18 AM 53.1167 -76.6667 343° North 240 276 25,000  Level Montreal Center
Sat 10:22:18 AM 53.1833 -76.7000 343° North 240 276 25,000  Level Montreal Center
Sat 10:23:18 AM 53.2500 -76.7167 351° North 240 276 25,000  Level Montreal Center
Sat 10:24:18 AM 53.3167 -76.7500 343° North 250 288 25,000  Level Montreal Center
Sat 10:25:18 AM 53.3833 -76.7833 343° North 250 288 25,000  Level Montreal Center
Sat 10:26:18 AM 53.4333 -76.8333 329° Northwest 250 288 25,000  Level Montreal Center
Sat 10:27:18 AM 53.5000 -76.8667 343° North 250 288 25,000  Level Montreal Center
Sat 10:28:18 AM 53.5667 -76.9000 343° North 250 288 25,000  Level Montreal Center
Sat 10:29:18 AM 53.6333 -76.9333 343° North 250 288 25,000  Level Montreal Center
Sat 10:30:18 AM 53.7000 -76.9667 344° North 240 276 25,000  Level Montreal Center
Sat 10:31:18 AM 53.7667 -76.9833 352° North 250 288 25,000  Level Montreal Center
Sat 10:32:18 AM 53.8333 -77.0167 344° North 250 288 25,000  Level Montreal Center
Sat 10:33:18 AM 53.9000 -77.0500 344° North 240 276 25,000  Level Montreal Center
Sat 10:34:18 AM 53.9833 -77.0833 347° North 250 288 25,000  Level Montreal Center
Sat 10:35:18 AM 54.0500 -77.1333 336° Northwest 250 288 25,000  Level Montreal Center
Sat 10:36:18 AM 54.1167 -77.1667 344° North 250 288 25,000 -50 Level Montreal Center
Sat 10:37:18 AM 54.1833 -77.2000 344° North 250 288 24,900 -900 Descending Montreal Center
Sat 10:38:18 AM 54.2667 -77.2333 347° North 280 322 23,200 -1,800 Descending Montreal Center
Sat 10:39:18 AM 54.3500 -77.2667 347° North 300 345 21,300 -1,850 Descending Montreal Center
Sat 10:40:18 AM 54.4333 -77.3167 341° North 310 357 19,500 -1,800 Descending Montreal Center
Sat 10:41:18 AM 54.5000 -77.3500 344° North 300 345 17,700 -1,800 Descending Montreal Center
Sat 10:42:18 AM 54.5833 -77.3833 347° North 290 334 15,900 -1,850 Descending Montreal Center
Sat 10:43:18 AM 54.6667 -77.4500 335° Northwest 280 322 14,000 -1,750 Descending Montreal Center
Sat 10:44:18 AM 54.7333 -77.4833 344° North 280 322 12,400 -1,650 Descending Montreal Center
Sat 10:45:18 AM 54.8167 -77.5167 347° North 270 311 10,700 -1,650 Descending Montreal Center
Sat 10:46:18 AM 54.8833 -77.5500 344° North 270 311 9,100 -1,600 Descending Montreal Center
Sat 10:47:18 AM 54.9500 -77.5667 352° North 260 299 7,500 -1,550 Descending Montreal Center
Sat 10:48:18 AM 55.0167 -77.6333 330° Northwest 260 299 6,000 -1,200 Descending Montreal Center
Sat 10:49:18 AM 55.0833 -77.6667 344° North 260 299 5,100 -900 Descending Montreal Center
Sat 10:51:00 AM 55.1849 -77.7106 347° North  Level FlightAware Approximate
Sat 10:58:00 AM 55.2667 -77.7500 344° North  Level FlightAware Approximate
Sat 10:59:00 AM 55.2814 -77.7581 344° North  Level Estimated
Sat 11:00:00 AM 55.2814 -77.7581 344° North  Level Estimated

Login

Don't have an account? Register now (free) for customized features, flight alerts, and more!